createdAt,value
2019-01-17T00:03:19.930Z,3.70
2019-01-17T00:08:21.939Z,3.00
2019-01-17T00:13:31.383Z,2.77
2019-01-17T00:18:29.192Z,3.33
2019-01-17T00:23:31.455Z,2.90
2019-01-17T00:28:34.978Z,2.17
2019-01-17T00:33:37.120Z,2.87
2019-01-17T00:38:40.823Z,3.60
2019-01-17T00:43:42.807Z,2.23
2019-01-17T00:48:52.265Z,2.60
2019-01-17T00:53:55.991Z,3.43
2019-01-17T00:59:05.395Z,2.60
2019-01-17T01:04:08.829Z,2.20
2019-01-17T01:09:11.145Z,4.27
2019-01-17T01:14:17.563Z,3.40
2019-01-17T01:19:23.773Z,3.00
2019-01-17T01:24:40.599Z,3.47
2019-01-17T01:29:45.135Z,3.40
2019-01-17T01:34:48.663Z,3.97
2019-01-17T01:39:50.975Z,4.93
2019-01-17T01:44:53.015Z,4.27
2019-01-17T01:49:55.138Z,3.30
2019-01-17T01:54:40.076Z,4.63
2019-01-17T01:59:24.758Z,3.80
2019-01-17T02:04:09.291Z,4.37
2019-01-17T02:08:54.107Z,4.77
2019-01-17T02:13:38.763Z,5.33
2019-01-17T02:18:23.340Z,5.33
2019-01-17T02:23:07.987Z,5.40
2019-01-17T02:27:52.751Z,8.13
2019-01-17T02:32:37.593Z,5.80
2019-01-17T02:37:23.123Z,8.23
2019-01-17T02:42:07.559Z,7.17
2019-01-17T02:46:52.187Z,7.90
2019-01-17T02:51:36.950Z,7.63
2019-01-17T02:56:21.421Z,6.10
2019-01-17T03:01:06.075Z,6.40
2019-01-17T03:05:50.848Z,7.57
2019-01-17T03:10:35.357Z,6.93
2019-01-17T03:15:20.204Z,6.80
2019-01-17T03:20:06.330Z,7.10
2019-01-17T03:24:50.939Z,5.73
2019-01-17T03:29:35.704Z,6.33
2019-01-17T03:34:20.309Z,6.10
2019-01-17T03:39:08.011Z,9.50
2019-01-17T03:43:52.665Z,7.97
2019-01-17T03:48:37.274Z,6.47
2019-01-17T03:53:21.875Z,6.27
2019-01-17T03:58:06.517Z,8.10
2019-01-17T04:02:51.121Z,10.87
2019-01-17T04:07:35.926Z,7.87
2019-01-17T04:12:20.585Z,9.37
2019-01-17T04:17:05.329Z,8.20
2019-01-17T04:21:50.019Z,6.20
2019-01-17T04:26:34.717Z,7.80
2019-01-17T04:31:19.437Z,8.27
2019-01-17T04:36:04.192Z,9.07
2019-01-17T04:40:48.817Z,8.07
2019-01-17T04:45:33.722Z,7.13
2019-01-17T04:50:18.230Z,8.13
2019-01-17T04:55:05.422Z,8.80
2019-01-17T04:59:49.326Z,9.60
2019-01-17T05:04:34.020Z,7.97
2019-01-17T05:09:18.940Z,6.70
2019-01-17T05:14:03.712Z,7.80
2019-01-17T05:18:48.403Z,7.93
2019-01-17T05:23:33.121Z,8.27
2019-01-17T05:28:17.767Z,8.07
2019-01-17T05:33:02.420Z,8.23
2019-01-17T05:37:47.226Z,10.73
2019-01-17T05:42:32.049Z,7.43
2019-01-17T05:47:16.730Z,6.87
2019-01-17T05:52:01.550Z,9.23
2019-01-17T05:56:46.303Z,8.33
2019-01-17T06:01:30.962Z,6.83
2019-01-17T06:06:16.921Z,8.67
2019-01-17T06:11:01.577Z,7.43
2019-01-17T06:15:46.668Z,6.53
2019-01-17T06:20:31.201Z,5.97
2019-01-17T06:25:15.889Z,7.27
2019-01-17T06:30:00.452Z,7.33
2019-01-17T06:34:45.100Z,5.43
2019-01-17T06:39:29.892Z,5.07
2019-01-17T06:44:20.304Z,5.77
2019-01-17T06:49:02.641Z,5.63
2019-01-17T06:53:47.397Z,4.77
2019-01-17T06:58:32.219Z,5.00
2019-01-17T07:03:17.069Z,6.27
2019-01-17T07:08:04.069Z,5.37
2019-01-17T07:12:48.640Z,3.80
2019-01-17T07:17:34.767Z,5.30
2019-01-17T07:22:19.218Z,4.00
2019-01-17T07:27:03.821Z,3.63
2019-01-17T07:31:48.428Z,5.13
2019-01-17T07:36:33.056Z,4.50
2019-01-17T07:41:17.805Z,3.50
2019-01-17T07:46:02.439Z,4.30
2019-01-17T07:50:47.281Z,3.67
2019-01-17T07:55:32.073Z,4.23
2019-01-17T08:00:19.216Z,4.43
2019-01-17T08:05:03.984Z,3.80
2019-01-17T08:09:48.647Z,4.70
2019-01-17T08:14:33.412Z,5.70
2019-01-17T08:19:18.323Z,3.70
2019-01-17T08:24:03.152Z,3.93
2019-01-17T08:28:47.979Z,3.33
2019-01-17T08:33:32.594Z,5.80
2019-01-17T08:38:17.131Z,3.57
2019-01-17T08:43:01.930Z,4.77
2019-01-17T08:47:46.506Z,5.80
2019-01-17T08:52:31.295Z,3.83
2019-01-17T08:57:15.966Z,3.87
2019-01-17T09:02:00.849Z,3.93
2019-01-17T09:06:45.678Z,3.77
2019-01-17T09:11:30.626Z,3.13
2019-01-17T09:16:15.347Z,2.90
2019-01-17T09:21:02.065Z,3.17
2019-01-17T09:25:47.223Z,3.30
2019-01-17T09:30:31.912Z,2.63
2019-01-17T09:35:17.050Z,2.63
2019-01-17T09:40:01.774Z,2.50
2019-01-17T09:44:47.436Z,2.97
2019-01-17T09:49:32.258Z,2.77
2019-01-17T09:54:16.848Z,4.27
2019-01-17T09:59:01.405Z,1.97
2019-01-17T10:03:46.067Z,3.80
2019-01-17T10:08:31.962Z,2.77
2019-01-17T10:13:16.563Z,3.40
2019-01-17T10:18:34.140Z,2.00
2019-01-17T10:23:58.150Z,2.20
2019-01-17T10:29:35.668Z,2.20
2019-01-17T10:34:56.347Z,2.20
2019-01-17T10:40:03.055Z,1.53
2019-01-17T10:45:40.426Z,1.90
2019-01-17T10:51:10.759Z,2.33
2019-01-17T10:56:27.888Z,3.33
2019-01-17T11:01:59.569Z,1.73
2019-01-17T11:07:03.475Z,1.00
2019-01-17T11:12:34.938Z,1.60
2019-01-17T11:18:00.317Z,1.33
2019-01-17T11:23:25.012Z,3.50
2019-01-17T11:28:42.673Z,1.20
2019-01-17T11:34:05.639Z,1.23
2019-01-17T11:39:26.662Z,1.63
2019-01-17T11:44:45.289Z,1.40
2019-01-17T11:50:09.597Z,1.60
2019-01-17T11:55:29.602Z,1.40
2019-01-17T12:00:41.460Z,1.60
2019-01-17T12:05:26.290Z,1.30
2019-01-17T12:10:12.946Z,1.37
2019-01-17T12:14:59.428Z,1.10
2019-01-17T12:19:44.130Z,1.27
2019-01-17T12:24:28.812Z,1.00
2019-01-17T12:29:13.369Z,2.10
2019-01-17T12:33:58.089Z,1.00
2019-01-17T12:38:42.656Z,0.93
2019-01-17T12:43:27.456Z,1.40
2019-01-17T12:48:12.003Z,1.77
2019-01-17T12:52:56.703Z,1.43
2019-01-17T12:57:41.588Z,1.50
2019-01-17T13:02:26.530Z,1.20
2019-01-17T13:07:11.188Z,1.10
2019-01-17T13:11:55.742Z,1.37
2019-01-17T13:16:40.243Z,1.30
2019-01-17T13:21:24.974Z,1.40
2019-01-17T13:26:09.849Z,1.20
2019-01-17T13:30:54.761Z,1.10
2019-01-17T13:35:39.423Z,1.00
2019-01-17T13:40:24.155Z,0.90
2019-01-17T13:45:10.534Z,1.43
2019-01-17T13:49:55.398Z,1.17
2019-01-17T13:54:40.154Z,0.80
2019-01-17T13:59:24.943Z,0.80
2019-01-17T14:04:09.548Z,0.83
2019-01-17T14:08:54.291Z,0.73
2019-01-17T14:13:39.218Z,1.20
2019-01-17T14:18:27.858Z,0.80
2019-01-17T14:23:10.886Z,1.63
2019-01-17T14:27:55.532Z,1.40
2019-01-17T14:32:40.709Z,1.10
2019-01-17T14:37:25.523Z,0.80
2019-01-17T14:42:10.271Z,1.30
2019-01-17T14:46:55.127Z,1.40
2019-01-17T14:51:39.629Z,1.17
2019-01-17T14:56:24.445Z,1.73
2019-01-17T15:01:08.964Z,1.43
2019-01-17T15:05:53.796Z,1.27
2019-01-17T15:10:40.700Z,1.37
2019-01-17T15:15:25.513Z,1.70
2019-01-17T15:20:18.543Z,1.93
2019-01-17T15:25:03.404Z,2.13
2019-01-17T15:29:47.887Z,1.57
2019-01-17T15:34:32.685Z,1.80
2019-01-17T15:39:17.267Z,1.47
2019-01-17T15:44:01.903Z,2.30
2019-01-17T15:48:46.416Z,1.73
2019-01-17T15:53:31.066Z,1.50
2019-01-17T15:58:15.568Z,1.50
2019-01-17T16:03:00.290Z,1.57
2019-01-17T16:07:44.823Z,1.30
2019-01-17T16:12:29.502Z,1.60
2019-01-17T16:17:14.700Z,1.80
2019-01-17T16:21:59.816Z,1.57
2019-01-17T16:26:44.457Z,1.40
2019-01-17T16:31:29.482Z,1.23
2019-01-17T16:36:17.248Z,2.17
2019-01-17T16:41:02.247Z,2.73
2019-01-17T16:45:46.998Z,1.83
2019-01-17T16:50:37.811Z,1.73
2019-01-17T16:55:38.227Z,2.03
2019-01-17T17:00:31.819Z,1.67
2019-01-17T17:05:16.647Z,2.10
2019-01-17T17:10:09.845Z,1.43
2019-01-17T17:14:54.550Z,1.20
2019-01-17T17:19:39.193Z,1.13
2019-01-17T17:24:23.847Z,2.57
2019-01-17T17:29:08.591Z,1.57
2019-01-17T17:33:53.404Z,1.20
2019-01-17T17:38:38.228Z,2.03
2019-01-17T17:43:23.146Z,3.30
2019-01-17T17:48:08.522Z,1.83
2019-01-17T17:52:53.048Z,3.20
2019-01-17T17:57:37.833Z,3.83
2019-01-17T18:02:29.758Z,3.17
2019-01-17T18:07:18.065Z,1.30
2019-01-17T18:12:03.062Z,2.27
2019-01-17T18:16:57.301Z,1.00
2019-01-17T18:21:43.542Z,2.10
2019-01-17T18:26:40.776Z,0.90
2019-01-17T18:31:38.471Z,0.70
2019-01-17T18:36:30.752Z,0.70
2019-01-17T18:42:23.000Z,0.70
2019-01-17T18:47:14.352Z,0.70
2019-01-17T18:52:16.143Z,0.83
2019-01-17T19:03:29.016Z,1.00
2019-01-17T19:08:43.054Z,0.70
2019-01-17T19:13:30.538Z,0.70
2019-01-17T19:29:54.858Z,0.60
2019-01-17T19:34:39.796Z,0.93
2019-01-17T19:39:24.683Z,0.73
2019-01-17T19:44:09.315Z,0.90
2019-01-17T19:48:54.159Z,1.50
2019-01-17T19:53:38.846Z,1.80
2019-01-17T19:58:28.966Z,1.83
2019-01-17T20:03:10.995Z,1.93
2019-01-17T20:07:55.956Z,2.13
2019-01-17T20:12:40.901Z,2.43
2019-01-17T20:17:25.791Z,1.80
2019-01-17T20:22:10.515Z,2.30
2019-01-17T20:27:06.501Z,2.40
2019-01-17T20:31:52.029Z,2.40
2019-01-17T20:36:42.262Z,2.57
2019-01-17T20:41:31.383Z,2.60
2019-01-17T20:46:16.269Z,2.60
2019-01-17T20:51:03.952Z,3.20
2019-01-17T20:55:49.313Z,3.07
2019-01-17T21:01:42.325Z,3.23
2019-01-17T21:06:27.208Z,3.23
2019-01-17T21:11:11.847Z,3.30
2019-01-17T21:16:01.232Z,3.97
2019-01-17T21:20:43.045Z,3.93
2019-01-17T21:25:27.749Z,3.43
2019-01-17T21:30:19.030Z,3.87
2019-01-17T21:35:03.766Z,4.30
2019-01-17T21:39:48.665Z,3.83
2019-01-17T21:44:33.545Z,5.00
2019-01-17T21:49:18.207Z,4.53
2019-01-17T21:54:02.954Z,4.50
2019-01-17T21:58:47.649Z,4.40
2019-01-17T22:03:36.972Z,3.97
2019-01-17T22:08:21.732Z,3.57
2019-01-17T22:13:06.487Z,3.67
2019-01-17T22:17:51.417Z,3.40
2019-01-17T22:22:36.381Z,3.60
2019-01-17T22:27:21.138Z,3.40
2019-01-17T22:32:05.832Z,3.70
2019-01-17T22:36:50.580Z,3.23
2019-01-17T22:41:42.933Z,3.37
2019-01-17T22:46:27.714Z,4.97
2019-01-17T22:51:12.427Z,4.03
2019-01-17T22:55:57.018Z,3.30
2019-01-17T23:00:57.982Z,3.20
2019-01-17T23:05:42.804Z,2.70
2019-01-17T23:10:27.391Z,2.20
2019-01-17T23:15:12.133Z,4.97
2019-01-17T23:19:56.900Z,1.80
2019-01-17T23:24:41.594Z,1.77
2019-01-17T23:29:26.120Z,2.30
2019-01-17T23:34:10.731Z,2.60
2019-01-17T23:38:55.440Z,3.00
2019-01-17T23:43:40.133Z,2.87
2019-01-17T23:48:24.749Z,3.57
2019-01-17T23:53:09.399Z,2.77
2019-01-17T23:57:56.844Z,2.43
